Time;durP1;ratioP1;P1;durP2;ratioP2;P2;SDS_P1;SDS_P2;PMS_P1;PMS_P2;Temp;Humidity;BMP_temperature;BMP_pressure;BME280_temperature;BME280_humidity;BME280_pressure;Samples;Min_cycle;Max_cycle;Signal;HPM_P1;HPM_P2
2022/12/30 00:02:00;;;;;;;29.08;12.07;;;;;;;1.11;66.92;99791.03;4920580;28;20464;-76
2022/12/30 00:04:26;;;;;;;29.55;11.75;;;;;;;0.95;66.21;99778.59;4921056;29;20043;-75
2022/12/30 00:06:52;;;;;;;24.98;11.02;;;;;;;1.04;67.92;99774.63;4953471;28;20070;-76
2022/12/30 00:09:18;;;;;;;31.23;12.80;;;;;;;1.23;67.49;99758.88;4971707;28;20067;-76
2022/12/30 00:11:44;;;;;;;33.15;13.32;;;;;;;1.36;67.16;99786.63;4945377;28;20073;-75
2022/12/30 00:34:34;;;;;;;28.27;12.00;;;;;;;1.18;67.18;99780.16;4955362;28;20051;-75
2022/12/30 00:37:00;;;;;;;28.45;12.00;;;;;;;1.31;67.56;99778.81;4972323;28;20043;-75
2022/12/30 00:39:27;;;;;;;25.52;11.43;;;;;;;1.17;66.96;99772.41;4955069;28;20458;-76
2022/12/30 00:44:38;;;;;;;30.42;12.63;;;;;;;0.88;67.00;99757.06;4956080;28;20038;-76
2022/12/30 00:47:06;;;;;;;33.08;12.60;;;;;;;0.76;65.87;99762.69;4955219;28;20516;-77
2022/12/30 00:57:46;;;;;;;33.05;13.70;;;;;;;1.23;66.63;99746.94;4955156;28;20463;-76
2022/12/30 01:00:13;;;;;;;30.58;12.80;;;;;;;1.10;67.29;99748.28;4956804;28;20039;-75
2022/12/30 01:02:39;;;;;;;38.55;14.48;;;;;;;1.14;67.74;99750.13;4958568;28;20631;-75
2022/12/30 01:05:06;;;;;;;29.73;12.93;;;;;;;0.90;65.95;99745.13;4958642;28;20515;-77
2022/12/30 01:07:32;;;;;;;35.78;13.23;;;;;;;0.69;66.34;99746.25;4954685;28;20098;-76
2022/12/30 01:09:58;;;;;;;36.00;14.13;;;;;;;0.75;68.27;99753.25;4923864;29;20041;-75
2022/12/30 01:12:25;;;;;;;34.65;13.60;;;;;;;0.83;67.29;99753.50;4924187;28;20039;-76
2022/12/30 01:14:54;;;;;;;33.90;13.18;;;;;;;1.02;68.46;99755.75;4958164;28;20527;-74
2022/12/30 01:17:24;;;;;;;35.38;13.85;;;;;;;1.20;67.94;99764.81;4939373;29;20070;-76
2022/12/30 01:19:50;;;;;;;38.72;14.20;;;;;;;1.27;67.86;99753.03;4923317;29;20508;-76
2022/12/30 01:22:16;;;;;;;36.28;14.05;;;;;;;1.31;67.12;99739.47;4939380;28;20051;-75
2022/12/30 01:24:42;;;;;;;33.90;13.40;;;;;;;1.21;68.10;99725.53;4957056;29;20039;-77
2022/12/30 01:27:07;;;;;;;37.50;13.15;;;;;;;1.43;68.15;99749.19;4931662;29;20067;-76
2022/12/30 01:29:38;;;;;;;35.63;13.32;;;;;;;1.29;66.54;99748.81;4923260;28;20086;-75
2022/12/30 01:32:06;;;;;;;33.97;13.57;;;;;;;1.20;67.05;99755.44;4956063;28;20047;-78
2022/12/30 01:34:33;;;;;;;34.53;13.07;;;;;;;1.09;66.95;99761.94;4922555;28;20075;-76
2022/12/30 01:36:59;;;;;;;35.67;13.65;;;;;;;0.95;66.83;99758.97;4907602;28;20154;-76
2022/12/30 01:39:25;;;;;;;36.33;14.65;;;;;;;0.77;67.43;99741.38;4923372;29;20100;-76
2022/12/30 01:41:55;;;;;;;38.10;14.23;;;;;;;0.84;67.15;99756.09;4923439;29;20062;-76
2022/12/30 01:45:03;;;;;;;39.53;14.77;;;;;;;0.74;68.37;99756.66;4922526;28;20198;-75
2022/12/30 01:47:49;;;;;;;40.58;14.68;;;;;;;1.01;68.87;99758.25;4912127;28;20398;-76
2022/12/30 01:50:54;;;;;;;39.78;14.35;;;;;;;1.00;67.63;99733.47;4938933;28;20043;-76
2022/12/30 01:53:26;;;;;;;37.22;14.60;;;;;;;0.98;66.93;99738.56;4939047;29;20053;-76
2022/12/30 01:56:14;;;;;;;;;;;;;;;1.04;68.54;99749.00;4941256;29;20047;-77
2022/12/30 01:58:45;;;;;;;37.67;14.75;;;;;;;1.03;67.77;99741.25;4956377;28;19918;-76
2022/12/30 02:01:11;;;;;;;36.97;14.75;;;;;;;1.02;67.73;99744.63;4938558;29;20484;-76
2022/12/30 02:03:45;;;;;;;39.25;14.88;;;;;;;1.09;68.54;99723.47;4938045;29;20073;-76
2022/12/30 02:06:19;;;;;;;39.35;14.40;;;;;;;1.08;68.08;99708.94;4955612;28;20031;-77
2022/12/30 02:08:45;;;;;;;48.17;15.32;;;;;;;1.09;67.12;99731.16;4951748;28;20042;-76
2022/12/30 02:11:11;;;;;;;44.95;15.25;;;;;;;1.05;67.47;99714.84;4974927;28;20555;-78
2022/12/30 02:13:37;;;;;;;40.58;14.63;;;;;;;1.12;67.70;99717.56;4957904;28;20062;-75
2022/12/30 02:16:21;;;;;;;43.55;14.68;;;;;;;1.20;67.67;99723.78;4957649;28;20038;-75
2022/12/30 02:19:00;;;;;;;48.35;15.77;;;;;;;1.37;68.23;99723.38;4974694;28;20477;-76
2022/12/30 02:22:03;;;;;;;38.80;15.13;;;;;;;1.51;67.74;99719.50;4957694;28;20064;-76
2022/12/30 02:24:43;;;;;;;42.55;15.43;;;;;;;1.48;68.18;99725.41;4965832;28;20054;-76
2022/12/30 02:27:39;;;;;;;43.55;15.75;;;;;;;1.49;67.74;99727.13;4956988;28;20062;-76
2022/12/30 02:30:21;;;;;;;44.10;16.13;;;;;;;1.19;67.47;99698.97;4957120;28;20046;-77
2022/12/30 02:33:33;;;;;;;54.38;17.02;;;;;;;1.09;68.17;99679.91;4942634;28;20042;-77
2022/12/30 02:36:13;;;;;;;45.75;15.63;;;;;;;1.23;68.29;99700.81;4936204;28;20081;-76
2022/12/30 02:38:53;;;;;;;45.67;15.25;;;;;;;1.39;68.41;99709.78;4958143;28;20145;-75
2022/12/30 02:44:36;;;;;;;45.67;15.40;;;;;;;1.32;67.45;99705.31;4957094;28;20042;-75
2022/12/30 02:47:17;;;;;;;41.60;15.77;;;;;;;1.50;68.48;99723.75;4974283;28;20039;-76
2022/12/30 02:52:14;;;;;;;39.60;15.63;;;;;;;1.50;68.02;99684.41;4956641;28;20503;-77
2022/12/30 02:52:36;;;;;;;43.45;16.38;;;;;;;1.78;68.58;99711.63;4972848;28;20050;-77
2022/12/30 02:55:03;;;;;;;45.17;15.77;;;;;;;1.39;67.29;99709.78;4972823;28;20042;-76
2022/12/30 02:57:31;;;;;;;47.70;16.40;;;;;;;1.19;67.45;99720.38;4972905;28;20105;-75
2022/12/30 03:06:08;;;;;;;45.88;15.75;;;;;;;1.29;68.39;99718.03;4965869;28;20073;-75
2022/12/30 03:08:38;;;;;;;44.10;16.08;;;;;;;1.35;68.38;99707.97;4961474;28;20035;-76
2022/12/30 03:11:17;;;;;;;47.42;17.05;;;;;;;1.54;68.52;99709.31;4953122;28;20043;-76
2022/12/30 03:13:58;;;;;;;46.25;16.35;;;;;;;1.41;68.17;99702.13;4953214;28;20034;-76
2022/12/30 03:16:35;;;;;;;46.83;16.83;;;;;;;1.46;68.19;99698.00;4954534;28;20393;-75
2022/12/30 03:19:05;;;;;;;51.53;16.23;;;;;;;1.47;68.23;99710.84;4952656;28;20054;-76
2022/12/30 03:21:35;;;;;;;52.08;18.00;;;;;;;1.55;68.50;99697.34;4954388;28;20039;-76
2022/12/30 03:27:04;;;;;;;45.70;16.42;;;;;;;1.53;68.06;99699.91;4954605;28;20047;-75
2022/12/30 03:29:40;;;;;;;50.45;16.60;;;;;;;1.30;67.82;99705.28;4952972;28;20039;-74
2022/12/30 03:32:13;;;;;;;51.92;16.88;;;;;;;1.16;68.73;99707.47;4953915;28;20051;-76
2022/12/30 03:34:40;;;;;;;54.05;17.13;;;;;;;1.33;68.68;99707.03;4952897;28;20161;-76
2022/12/30 03:37:17;;;;;;;50.92;18.42;;;;;;;1.39;68.57;99704.66;4954298;28;20043;-76
2022/12/30 03:39:54;;;;;;;57.20;17.25;;;;;;;1.49;68.46;99703.19;4952342;28;20073;-75
2022/12/30 03:42:21;;;;;;;46.75;16.13;;;;;;;1.61;68.48;99713.75;4953765;28;20130;-77
2022/12/30 03:44:49;;;;;;;49.33;17.27;;;;;;;1.71;69.15;99702.03;4936412;28;20058;-76
2022/12/30 03:47:17;;;;;;;44.10;15.80;;;;;;;1.38;67.18;99679.84;4952611;28;20043;-76
2022/12/30 03:49:43;;;;;;;49.90;16.98;;;;;;;1.43;68.46;99698.78;4936718;29;20039;-75
2022/12/30 03:52:15;;;;;;;53.33;17.45;;;;;;;1.61;69.00;99710.34;4922355;29;21101;-76
2022/12/30 03:54:44;;;;;;;46.40;17.08;;;;;;;1.56;68.95;99697.38;4918912;29;20059;-77
2022/12/30 03:57:10;;;;;;;52.05;16.40;;;;;;;1.52;68.82;99695.59;4923915;29;20039;-76
2022/12/30 03:59:36;;;;;;;48.97;16.67;;;;;;;1.63;68.92;99699.28;4916888;29;20039;-77
2022/12/30 04:02:01;;;;;;;45.15;15.93;;;;;;;1.61;69.18;99677.84;4917061;29;20043;-77
2022/12/30 04:04:27;;;;;;;41.25;15.98;;;;;;;1.89;69.39;99695.63;4916350;29;20051;-76
2022/12/30 04:06:53;;;;;;;42.55;15.98;;;;;;;1.86;69.21;99672.47;4917047;29;20420;-77
2022/12/30 04:09:19;;;;;;;44.83;16.73;;;;;;;1.93;68.98;99687.19;4952287;29;20043;-76
2022/12/30 04:11:45;;;;;;;52.80;18.45;;;;;;;1.77;68.79;99660.28;4953918;29;20130;-76
2022/12/30 04:14:11;;;;;;;48.03;16.45;;;;;;;1.91;68.14;99686.28;4953804;29;20194;-77
2022/12/30 04:16:38;;;;;;;43.25;15.85;;;;;;;1.70;68.29;99677.22;4936035;29;20042;-77
2022/12/30 04:19:04;;;;;;;47.35;16.65;;;;;;;1.70;68.57;99682.34;4952978;29;20093;-77
2022/12/30 04:21:30;;;;;;;44.72;16.88;;;;;;;1.61;69.03;99700.94;4936015;29;20043;-77
2022/12/30 04:23:56;;;;;;;49.28;16.98;;;;;;;1.62;68.78;99696.69;4936394;29;20047;-77
2022/12/30 04:26:22;;;;;;;51.38;16.50;;;;;;;1.49;68.62;99660.44;4937891;29;20047;-76
2022/12/30 04:28:48;;;;;;;51.42;18.15;;;;;;;1.59;68.30;99694.91;4923534;29;20430;-76
2022/12/30 04:31:14;;;;;;;48.92;17.40;;;;;;;1.72;69.02;99692.66;4936245;29;20050;-76
2022/12/30 04:33:40;;;;;;;48.55;17.02;;;;;;;1.62;68.04;99671.03;4920482;29;20234;-76
2022/12/30 04:36:06;;;;;;;49.17;17.35;;;;;;;1.43;69.09;99656.88;4939341;29;20047;-77
2022/12/30 04:38:33;;;;;;;52.25;18.52;;;;;;;1.62;68.85;99684.72;4957274;29;20043;-76
2022/12/30 04:41:00;;;;;;;50.10;17.67;;;;;;;1.35;68.74;99625.91;4939656;29;20528;-76
2022/12/30 04:43:26;;;;;;;57.47;18.52;;;;;;;1.43;67.61;99668.00;4957188;29;20105;-76
2022/12/30 04:45:52;;;;;;;52.88;17.55;;;;;;;1.25;68.32;99654.69;4924003;29;20046;-77
2022/12/30 04:48:18;;;;;;;46.90;15.70;;;;;;;1.01;68.62;99623.31;4939645;29;20043;-77
2022/12/30 04:50:45;;;;;;;45.10;15.88;;;;;;;1.16;69.67;99621.97;4939891;29;20413;-76
2022/12/30 04:53:12;;;;;;;49.60;17.38;;;;;;;1.54;69.60;99657.16;4940528;29;20097;-77
2022/12/30 04:55:38;;;;;;;49.72;17.10;;;;;;;1.35;68.34;99651.53;4957345;29;20049;-76
2022/12/30 04:58:05;;;;;;;41.33;16.63;;;;;;;1.35;69.81;99646.41;4908280;29;20866;-77
2022/12/30 05:00:32;;;;;;;41.40;16.05;;;;;;;1.49;69.70;99637.38;4939621;29;20070;-76
2022/12/30 05:02:58;;;;;;;41.15;16.20;;;;;;;1.55;69.08;99639.22;4957126;29;20070;-76
2022/12/30 05:05:25;;;;;;;44.72;16.45;;;;;;;1.32;68.80;99629.28;4939454;29;20061;-77
2022/12/30 05:07:51;;;;;;;45.13;17.20;;;;;;;1.41;69.36;99638.91;4933536;29;20048;-77
2022/12/30 05:10:17;;;;;;;41.28;16.48;;;;;;;1.49;68.83;99637.38;4927676;29;20126;-76
2022/12/30 05:12:44;;;;;;;42.80;15.52;;;;;;;1.42;69.67;99614.09;4922641;29;20043;-77
2022/12/30 05:15:10;;;;;;;40.35;15.90;;;;;;;1.39;69.23;99609.78;4937235;29;20086;-78
2022/12/30 05:17:36;;;;;;;38.40;15.10;;;;;;;1.37;69.13;99621.69;4937414;29;20044;-78
2022/12/30 05:20:02;;;;;;;40.58;16.13;;;;;;;1.31;69.26;99608.69;4920274;29;20043;-76
2022/12/30 05:22:29;;;;;;;45.47;15.93;;;;;;;1.54;69.21;99652.91;4937261;29;20048;-78
2022/12/30 05:27:43;;;;;;;36.10;14.60;;;;;;;1.56;69.42;99648.66;4904513;29;20504;-77
2022/12/30 05:30:12;;;;;;;44.88;15.98;;;;;;;1.50;68.93;99640.81;4937117;29;20042;-77
2022/12/30 05:32:38;;;;;;;38.25;16.33;;;;;;;1.47;69.61;99636.47;4937180;29;20040;-77
2022/12/30 05:35:05;;;;;;;36.92;14.73;;;;;;;1.32;69.50;99611.31;4919685;29;20163;-77
2022/12/30 05:37:31;;;;;;;41.53;15.82;;;;;;;1.45;69.16;99648.38;4919924;29;20043;-77
2022/12/30 05:39:56;;;;;;;38.95;15.48;;;;;;;1.41;69.82;99635.44;4920530;29;20513;-76
2022/12/30 05:42:23;;;;;;;42.10;16.40;;;;;;;1.52;69.78;99646.84;4937167;29;20130;-76
2022/12/30 05:44:49;;;;;;;41.38;15.40;;;;;;;1.52;69.05;99646.84;4936984;29;20111;-76
2022/12/30 05:47:15;;;;;;;43.13;16.00;;;;;;;1.37;69.47;99631.06;4936987;29;20500;-76
2022/12/30 05:49:43;;;;;;;35.35;15.10;;;;;;;1.53;69.60;99653.72;4936703;29;20043;-77
2022/12/30 05:52:09;;;;;;;42.13;14.95;;;;;;;1.41;68.79;99644.03;4919683;29;20071;-76
2022/12/30 05:54:35;;;;;;;38.85;15.70;;;;;;;1.39;69.79;99637.09;4920104;29;20111;-77
2022/12/30 05:57:01;;;;;;;41.83;16.08;;;;;;;1.55;69.60;99659.72;4904499;29;20043;-77
2022/12/30 05:59:28;;;;;;;35.42;14.73;;;;;;;1.43;69.38;99629.53;4922046;29;20043;-75
2022/12/30 06:01:53;;;;;;;39.78;14.82;;;;;;;1.52;69.29;99653.66;4936383;29;20053;-77
2022/12/30 06:04:20;;;;;;;35.08;13.98;;;;;;;1.32;69.01;99642.09;4936141;29;20417;-77
2022/12/30 06:06:49;;;;;;;38.50;15.43;;;;;;;1.40;69.38;99659.34;4936074;29;20044;-77
2022/12/30 06:09:16;;;;;;;36.17;14.55;;;;;;;1.29;70.10;99634.31;4937300;29;20424;-76
2022/12/30 06:11:42;;;;;;;34.00;14.32;;;;;;;1.32;69.60;99649.78;4955610;29;20051;-77
2022/12/30 06:14:10;;;;;;;35.63;13.52;;;;;;;1.42;69.51;99667.94;4922113;29;20043;-78
2022/12/30 06:16:36;;;;;;;32.72;14.23;;;;;;;1.24;69.99;99635.88;4922307;29;20223;-78
2022/12/30 06:19:02;;;;;;;33.53;14.82;;;;;;;1.48;69.51;99658.72;4938404;29;20105;-77
2022/12/30 06:21:31;;;;;;;33.70;14.70;;;;;;;1.50;69.73;99651.09;4922416;29;20070;-76
2022/12/30 06:24:00;;;;;;;39.97;15.07;;;;;;;1.41;70.04;99618.38;4940123;29;20423;-76
2022/12/30 06:26:27;;;;;;;35.85;14.25;;;;;;;1.57;69.77;99646.97;4945194;29;20054;-77
2022/12/30 06:28:53;;;;;;;34.03;13.95;;;;;;;1.60;69.99;99632.50;4922905;29;20105;-77
2022/12/30 06:31:19;;;;;;;32.88;14.10;;;;;;;1.55;69.37;99615.28;4922525;29;20564;-78
2022/12/30 06:33:47;;;;;;;32.92;13.63;;;;;;;1.72;69.92;99646.47;4957011;29;20125;-78
2022/12/30 06:36:16;;;;;;;35.78;14.13;;;;;;;1.63;70.00;99624.91;4923176;29;20054;-77
2022/12/30 06:38:45;;;;;;;35.80;13.93;;;;;;;1.72;69.64;99642.22;4938489;29;20040;-78
2022/12/30 06:41:12;;;;;;;35.28;14.70;;;;;;;1.75;70.31;99636.31;4938935;29;20049;-78
2022/12/30 06:43:39;;;;;;;26.77;12.98;;;;;;;1.82;69.96;99637.31;4907244;29;20035;-77
2022/12/30 06:46:05;;;;;;;33.10;13.85;;;;;;;1.75;69.72;99621.75;4938904;29;20134;-78
2022/12/30 06:48:31;;;;;;;28.83;12.48;;;;;;;1.77;69.43;99625.22;4923039;29;20039;-77
2022/12/30 06:51:02;;;;;;;35.05;13.80;;;;;;;1.33;70.12;99543.81;4938384;29;20050;-77
2022/12/30 06:53:31;;;;;;;31.38;12.93;;;;;;;1.63;69.96;99576.16;4922402;29;20039;-76
2022/12/30 06:55:57;;;;;;;28.83;12.60;;;;;;;2.05;70.10;99628.44;4937548;29;20047;-79
2022/12/30 06:58:23;;;;;;;30.85;14.45;;;;;;;2.16;70.57;99630.38;4920633;29;20428;-78
2022/12/30 07:00:53;;;;;;;24.95;11.70;;;;;;;2.00;69.63;99635.16;4922461;29;20054;-78
2022/12/30 07:03:33;;;;;;;25.65;12.82;;;;;;;1.88;70.08;99617.78;4922148;29;20039;-78
2022/12/30 07:06:38;;;;;;;26.85;12.35;;;;;;;1.53;69.76;99569.09;4954455;29;20039;-78
2022/12/30 07:09:04;;;;;;;25.02;11.70;;;;;;;1.68;69.91;99607.03;4921622;29;20054;-76
2022/12/30 07:11:30;;;;;;;26.05;12.05;;;;;;;1.86;69.95;99624.59;4935629;29;20055;-78
2022/12/30 07:14:00;;;;;;;25.63;12.57;;;;;;;1.99;70.34;99633.44;4920156;29;20040;-76
2022/12/30 07:16:33;;;;;;;30.65;12.75;;;;;;;1.86;70.13;99609.19;4935634;29;20043;-76
2022/12/30 07:18:59;;;;;;;26.48;11.80;;;;;;;1.98;69.39;99621.44;4935655;29;20105;-77
2022/12/30 07:21:25;;;;;;;27.05;11.95;;;;;;;2.05;69.90;99640.41;4919134;29;20407;-78
2022/12/30 07:23:54;;;;;;;26.48;11.57;;;;;;;1.79;70.04;99612.44;4902255;29;20641;-76
2022/12/30 07:26:20;;;;;;;29.65;11.98;;;;;;;2.11;69.93;99645.69;4902117;29;20529;-78
2022/12/30 07:28:46;;;;;;;27.15;12.15;;;;;;;1.85;69.76;99609.16;4901913;29;20036;-77
2022/12/30 07:31:12;;;;;;;29.13;12.20;;;;;;;1.85;69.69;99609.16;4918169;29;20472;-76
2022/12/30 07:33:38;;;;;;;27.88;11.68;;;;;;;1.94;69.52;99619.63;4935034;29;20425;-78
2022/12/30 07:36:05;;;;;;;29.65;13.30;;;;;;;1.81;69.72;99610.75;4902522;29;20110;-76
2022/12/30 07:38:34;;;;;;;28.60;13.10;;;;;;;1.63;69.82;99586.41;4889278;29;20035;-77
2022/12/30 07:41:09;;;;;;;26.10;11.73;;;;;;;2.17;69.91;99647.53;4906222;29;20043;-79
2022/12/30 07:43:39;;;;;;;29.17;12.52;;;;;;;2.15;70.02;99649.19;4918263;29;20047;-76
2022/12/30 07:46:07;;;;;;;24.95;11.38;;;;;;;2.09;70.50;99647.34;4918529;29;20048;-78
2022/12/30 07:48:33;;;;;;;25.85;12.10;;;;;;;2.28;70.11;99655.47;4905866;29;20051;-77
2022/12/30 07:51:00;;;;;;;27.38;12.10;;;;;;;2.32;69.61;99659.84;4909933;29;20060;-78
2022/12/30 07:53:26;;;;;;;23.45;11.32;;;;;;;2.02;70.58;99596.69;4921614;29;20051;-74
2022/12/30 07:55:52;;;;;;;26.33;12.43;;;;;;;2.15;70.33;99606.41;4936048;29;20555;-76
2022/12/30 07:58:18;;;;;;;24.23;12.20;;;;;;;2.44;69.99;99648.97;4938157;29;20070;-77
2022/12/30 08:00:44;;;;;;;28.70;13.00;;;;;;;2.35;69.74;99627.38;4902485;29;20039;-79
2022/12/30 08:03:10;;;;;;;24.95;10.98;;;;;;;1.99;69.25;99589.81;4918477;29;20130;-77
2022/12/30 08:05:36;;;;;;;22.58;11.70;;;;;;;2.14;69.09;99608.94;4917809;29;20039;-78
2022/12/30 08:08:02;;;;;;;22.52;11.20;;;;;;;2.21;69.71;99609.09;4941912;28;20051;-77
2022/12/30 08:10:28;;;;;;;26.23;12.15;;;;;;;2.49;69.72;99639.66;4936895;29;20070;-76
2022/12/30 08:12:54;;;;;;;24.13;11.63;;;;;;;2.48;70.08;99596.84;4953746;29;20078;-76
2022/12/30 08:15:20;;;;;;;23.48;11.35;;;;;;;2.50;69.29;99613.16;4936794;29;20055;-78
2022/12/30 08:17:47;;;;;;;22.25;10.63;;;;;;;2.54;69.76;99614.91;4936648;29;20043;-77
2022/12/30 08:20:13;;;;;;;20.13;10.00;;;;;;;2.52;69.51;99606.34;4936530;29;20043;-78
2022/12/30 08:22:41;;;;;;;23.92;11.40;;;;;;;2.66;69.89;99617.75;4936979;29;20046;-78
2022/12/30 08:25:10;;;;;;;24.85;10.80;;;;;;;2.75;69.54;99623.94;4953812;29;20050;-76
2022/12/30 08:27:39;;;;;;;20.10;10.40;;;;;;;2.82;69.36;99628.34;4936314;29;20043;-77
2022/12/30 08:30:06;;;;;;;21.77;10.10;;;;;;;2.79;68.95;99630.84;4953384;29;20042;-78
2022/12/30 08:32:32;;;;;;;19.33;10.18;;;;;;;2.71;69.10;99626.44;4953158;29;20523;-78
2022/12/30 08:35:01;;;;;;;20.63;10.93;;;;;;;2.61;69.34;99615.94;4936471;29;20155;-77
2022/12/30 08:37:29;;;;;;;19.25;10.25;;;;;;;2.66;69.39;99619.44;4936410;29;20074;-77
2022/12/30 08:39:55;;;;;;;18.67;10.05;;;;;;;2.70;69.43;99622.13;4904566;29;20078;-77
2022/12/30 08:42:21;;;;;;;19.42;9.63;;;;;;;2.81;69.01;99636.88;4936145;29;20177;-76
2022/12/30 08:44:56;;;;;;;18.33;9.77;;;;;;;2.54;68.66;99599.50;4936800;29;20118;-78
2022/12/30 08:47:22;;;;;;;21.38;10.35;;;;;;;2.55;69.18;99598.69;4936125;29;20047;-77
2022/12/30 08:49:48;;;;;;;19.50;10.07;;;;;;;2.73;69.00;99626.44;4935444;29;20043;-78
2022/12/30 08:52:14;;;;;;;19.13;9.57;;;;;;;2.67;68.43;99618.59;4938059;28;20059;-76
2022/12/30 08:54:40;;;;;;;23.73;10.18;;;;;;;2.78;69.45;99626.53;4944157;29;20099;-77
2022/12/30 08:57:08;;;;;;;20.05;10.00;;;;;;;2.64;69.33;99591.16;4954477;29;20067;-77
2022/12/30 08:59:39;;;;;;;21.65;10.50;;;;;;;2.70;68.54;99617.00;4921491;29;20050;-78
2022/12/30 09:02:05;;;;;;;19.13;9.50;;;;;;;2.73;69.14;99605.03;4939127;29;20039;-77
2022/12/30 09:04:53;;;;;;;17.40;10.07;;;;;;;2.95;69.51;99624.31;4957977;29;20047;-77
2022/12/30 09:12:29;;;;;;;18.55;9.57;;;;;;;2.78;69.40;99567.44;4890618;29;20079;-76
2022/12/30 09:14:55;;;;;;;16.67;8.80;;;;;;;3.15;69.00;99614.41;4934222;29;20068;-77
2022/12/30 09:17:37;;;;;;;14.70;8.88;;;;;;;3.19;68.79;99611.06;4901400;29;20044;-79
2022/12/30 09:20:12;;;;;;;20.08;10.68;;;;;;;3.24;69.23;99611.97;4901360;29;20062;-79
2022/12/30 09:22:38;;;;;;;17.58;9.75;;;;;;;3.23;68.30;99607.69;4920722;29;20043;-77
2022/12/30 09:25:11;;;;;;;17.60;9.07;;;;;;;2.47;68.75;99494.94;4918694;29;20067;-78
2022/12/30 09:27:47;;;;;;;18.95;9.50;;;;;;;2.95;68.25;99560.91;4906791;29;20067;-76
2022/12/30 09:30:36;;;;;;;17.55;9.57;;;;;;;2.47;68.09;99489.78;4938655;29;20126;-77
2022/12/30 09:33:56;;;;;;;18.65;9.60;;;;;;;2.16;68.60;99397.63;4892452;29;20614;-77
2022/12/30 09:40:05;;;;;;;16.75;9.00;;;;;;;3.05;67.77;99568.78;4926568;29;20052;-77
2022/12/30 09:46:37;;;;;;;16.90;9.32;;;;;;;3.25;67.86;99582.00;4937543;29;20086;-78
2022/12/30 09:52:32;;;;;;;15.55;8.32;;;;;;;3.14;68.53;99589.53;4936760;29;20062;-77
2022/12/30 09:55:27;;;;;;;14.57;8.40;;;;;;;3.21;68.34;99568.22;4920849;29;20051;-80
2022/12/30 09:58:43;;;;;;;14.98;8.30;;;;;;;3.24;68.38;99573.41;4938727;29;20048;-78
2022/12/30 10:02:14;;;;;;;15.23;8.20;;;;;;;3.33;68.99;99564.13;4883219;29;20048;-78
2022/12/30 10:05:04;;;;;;;13.90;7.75;;;;;;;2.88;68.58;99492.25;4847480;29;20287;-77
2022/12/30 10:07:41;;;;;;;13.98;7.97;;;;;;;2.88;68.88;99486.22;4861135;29;20065;-77
2022/12/30 10:10:41;;;;;;;14.18;8.13;;;;;;;3.30;68.66;99563.22;4863182;29;20041;-78
2022/12/30 10:13:48;;;;;;;13.65;8.20;;;;;;;3.24;68.40;99568.25;4905671;29;20050;-78
2022/12/30 10:16:24;;;;;;;15.43;8.35;;;;;;;3.10;68.20;99544.88;4904072;29;20417;-78
2022/12/30 10:19:20;;;;;;;14.23;7.60;;;;;;;3.19;68.88;99553.59;4909593;29;20523;-78
2022/12/30 10:22:16;;;;;;;13.63;8.02;;;;;;;3.08;68.51;99548.28;4920182;29;20090;-79
2022/12/30 10:24:54;;;;;;;13.38;7.03;;;;;;;3.19;68.49;99562.19;4903305;29;20044;-76
2022/12/30 10:27:25;;;;;;;13.50;7.53;;;;;;;2.93;68.37;99530.88;4919168;29;20072;-77
2022/12/30 10:33:19;;;;;;;13.70;7.30;;;;;;;3.17;68.47;99563.88;4919658;29;20115;-77
2022/12/30 10:36:21;;;;;;;13.50;7.40;;;;;;;2.88;68.83;99530.78;4920421;29;20044;-78
2022/12/30 10:39:16;;;;;;;12.65;7.43;;;;;;;2.77;68.66;99529.72;4938216;29;20043;-79
2022/12/30 10:42:27;;;;;;;12.10;7.43;;;;;;;3.19;69.00;99554.47;4905870;29;20063;-77
2022/12/30 10:45:26;;;;;;;13.90;7.45;;;;;;;3.28;69.04;99569.19;4893428;29;20508;-81
2022/12/30 10:48:36;;;;;;;17.00;7.80;;;;;;;3.05;68.63;99527.66;4875793;29;20047;-77
2022/12/30 10:51:03;;;;;;;12.90;7.18;;;;;;;3.13;69.01;99534.66;4909923;29;20051;-76
2022/12/30 10:53:31;;;;;;;12.70;7.43;;;;;;;3.38;69.07;99565.94;4936752;29;20100;-79
2022/12/30 10:55:59;;;;;;;10.88;6.97;;;;;;;3.33;68.69;99548.69;4936453;29;20071;-77
2022/12/30 10:58:47;;;;;;;14.02;7.40;;;;;;;3.41;68.50;99563.41;4920354;29;20040;-76
2022/12/30 11:01:28;;;;;;;12.50;7.82;;;;;;;3.36;68.52;99556.47;4938488;29;20461;-78
2022/12/30 11:03:58;;;;;;;13.15;7.82;;;;;;;3.27;69.05;99546.91;4936962;29;20051;-75
2022/12/30 11:06:27;;;;;;;13.43;7.72;;;;;;;3.23;68.56;99529.66;4921914;29;20526;-77
2022/12/30 11:09:14;;;;;;;15.68;8.35;;;;;;;3.38;69.14;99544.50;4923976;29;20047;-76
2022/12/30 11:14:43;;;;;;;11.18;7.18;;;;;;;3.33;68.47;99535.84;4900522;29;20489;-76
2022/12/30 11:17:15;;;;;;;14.43;7.70;;;;;;;3.41;68.84;99547.13;4916554;29;20099;-78
2022/12/30 11:19:42;;;;;;;13.80;7.90;;;;;;;3.12;68.21;99524.34;4916250;29;20564;-77
2022/12/30 11:22:10;;;;;;;12.80;7.88;;;;;;;3.23;69.33;99542.53;4902293;29;20075;-76
2022/12/30 11:24:37;;;;;;;15.38;7.97;;;;;;;3.33;68.84;99558.97;4885604;29;20158;-78
2022/12/30 11:27:04;;;;;;;16.85;7.45;;;;;;;3.23;69.36;99537.38;4902024;29;20048;-78
2022/12/30 11:29:33;;;;;;;14.90;7.45;;;;;;;3.27;68.80;99546.91;4918077;29;20044;-77
2022/12/30 11:32:11;;;;;;;12.80;7.18;;;;;;;3.29;68.97;99551.22;4902392;29;20044;-78
2022/12/30 11:34:39;;;;;;;14.23;7.47;;;;;;;3.31;69.55;99559.81;4926623;29;20048;-77
2022/12/30 11:37:31;;;;;;;11.95;6.78;;;;;;;3.33;69.41;99546.13;4922168;29;20040;-78
2022/12/30 11:40:24;;;;;;;12.13;7.13;;;;;;;3.37;69.73;99553.06;4902081;29;20051;-79
2022/12/30 11:43:16;;;;;;;13.32;6.97;;;;;;;3.33;69.40;99543.56;4901452;29;20173;-79
2022/12/30 11:46:04;;;;;;;14.35;7.20;;;;;;;3.37;69.81;99556.47;4919408;29;20111;-78
2022/12/30 11:48:33;;;;;;;10.77;6.78;;;;;;;3.37;68.97;99541.03;4918921;29;20052;-79
2022/12/30 11:51:02;;;;;;;14.90;7.80;;;;;;;3.34;69.42;99533.28;4918929;29;20103;-77
2022/12/30 11:53:33;;;;;;;12.35;7.18;;;;;;;3.17;69.17;99509.88;4930826;29;20047;-79
2022/12/30 11:55:59;;;;;;;10.23;6.57;;;;;;;3.18;68.77;99519.31;4938266;28;20112;-77
2022/12/30 11:58:26;;;;;;;10.18;6.28;;;;;;;3.38;69.46;99549.63;4922225;29;20107;-76
2022/12/30 12:01:06;;;;;;;11.02;7.10;;;;;;;3.38;69.95;99547.91;4919468;29;20086;-78
2022/12/30 12:03:45;;;;;;;15.25;8.57;;;;;;;3.38;69.26;99562.50;4920379;29;20119;-77
2022/12/30 12:06:11;;;;;;;14.85;7.25;;;;;;;3.46;69.54;99553.19;4919756;29;20048;-77
2022/12/30 12:09:07;;;;;;;11.50;7.38;;;;;;;3.21;69.21;99509.06;4918814;29;20110;-77
2022/12/30 12:11:41;;;;;;;10.55;6.65;;;;;;;3.44;69.23;99545.47;4918669;29;20123;-78
2022/12/30 12:14:28;;;;;;;11.57;6.95;;;;;;;3.53;69.38;99555.03;4887962;29;20051;-77
2022/12/30 12:17:29;;;;;;;9.57;6.70;;;;;;;3.53;70.08;99555.03;4946964;29;20468;-78
2022/12/30 12:20:03;;;;;;;10.38;6.97;;;;;;;3.42;69.22;99533.41;4937315;29;20048;-77
2022/12/30 12:22:54;;;;;;;13.13;7.05;;;;;;;3.50;69.03;99551.56;4933089;29;20054;-77
2022/12/30 12:25:23;;;;;;;12.88;6.47;;;;;;;3.43;69.15;99540.28;4904031;29;20048;-76
2022/12/30 12:27:50;;;;;;;11.38;6.70;;;;;;;3.46;69.53;99540.31;4936219;29;20051;-76
2022/12/30 12:30:18;;;;;;;10.25;6.90;;;;;;;3.55;69.31;99555.91;4901497;29;20048;-77
2022/12/30 12:32:53;;;;;;;14.23;7.35;;;;;;;3.42;69.77;99543.72;4901713;29;20402;-77
2022/12/30 12:35:52;;;;;;;13.68;7.50;;;;;;;3.50;69.58;99560.13;4917711;29;20055;-78
2022/12/30 12:38:39;;;;;;;11.73;7.32;;;;;;;3.51;69.90;99566.16;4918005;29;20063;-78
2022/12/30 12:41:26;;;;;;;11.82;7.22;;;;;;;3.50;69.44;99564.41;4917363;29;20051;-75
2022/12/30 12:44:10;;;;;;;12.60;7.75;;;;;;;3.50;70.01;99562.69;4903077;29;20424;-77
2022/12/30 12:46:45;;;;;;;13.00;7.10;;;;;;;3.50;69.08;99561.84;4917292;29;20055;-79
2022/12/30 12:49:23;;;;;;;13.15;7.43;;;;;;;3.25;69.46;99539.13;4925340;29;20047;-77
2022/12/30 12:52:12;;;;;;;12.15;7.13;;;;;;;3.42;68.95;99566.88;4937851;29;20539;-77
2022/12/30 12:55:03;;;;;;;12.73;7.43;;;;;;;3.39;69.85;99565.09;4917073;29;20053;-79
2022/12/30 12:58:06;;;;;;;14.10;7.18;;;;;;;3.41;69.79;99565.13;4920438;29;20042;-78
2022/12/30 13:00:59;;;;;;;14.35;7.20;;;;;;;3.42;70.25;99569.44;4905034;29;20062;-76
2022/12/30 13:04:12;;;;;;;12.55;7.20;;;;;;;3.34;69.52;99564.13;4920920;29;20059;-77
2022/12/30 13:06:45;;;;;;;13.65;7.10;;;;;;;3.28;69.05;99554.63;4926059;29;20052;-77